Time;durP1;ratioP1;P1;durP2;ratioP2;P2;SDS_P1;SDS_P2;PMS_P1;PMS_P2;Temp;Humidity;BMP_temperature;BMP_pressure;BME280_temperature;BME280_humidity;BME280_pressure;Samples;Min_cycle;Max_cycle;Signal;HPM_P1;HPM_P2
2021/11/10 00:00:30;;;;;;;;;;;;;;;;;;1004971;29;1099;-58
2021/11/10 00:01:00;;;;;;;;;;;;;;;;;;1013114;29;1398;-58
2021/11/10 00:01:30;;;;;;;;;;;;;;;;;;1021390;29;868;-57
2021/11/10 00:02:01;;;;;;;;;;;;;;;;;;1020711;29;1498;-56
2021/11/10 00:02:31;;;;;;;;;;;;;;;;;;1021244;29;1148;-57
2021/11/10 00:03:02;;;;;;;;;;;;;;;;;;1021547;29;886;-58
2021/11/10 00:03:35;;;;;;;;;;;;;;;;;;1021343;29;1058;-58
2021/11/10 00:04:06;;;;;;;;;;;;;;;;;;1016921;29;1025;-58
2021/11/10 00:04:36;;;;;;;;;;;;;;;;;;1016906;29;992;-58
2021/11/10 00:05:07;;;;;;;;;;;;;;;;;;1016415;29;1025;-58
2021/11/10 00:05:38;;;;;;;;;;;;;;;;;;1016795;29;951;-58
2021/11/10 00:06:08;;;;;;;;;;;;;;;;;;1021415;29;967;-57
2021/11/10 00:06:39;;;;;;;;;;;;;;;;;;1021352;29;924;-58
2021/11/10 00:07:10;;;;;;;;;;;;;;;;;;1021417;29;917;-58
2021/11/10 00:07:44;;;;;;;;;;;;;;;;;;1023388;28;1076;-58
2021/11/10 00:08:27;;;;;;;;;;;;;;;;;;1024660;28;1203;-58
2021/11/10 00:09:05;;;;;;;;;;;;;;;;;;1020477;29;1297;-58
2021/11/10 00:09:36;;;;;;;;;;;;;;;;;;1010145;29;1346;-58
2021/11/10 00:10:12;;;;;;;;;;;;;;;;;;1005157;29;1491;-58
2021/11/10 00:10:43;;;;;;;;;;;;;;;;;;1006397;29;1077;-58
2021/11/10 00:11:13;;;;;;;;;;;;;;;;;;1010431;29;1411;-57
2021/11/10 00:11:44;;;;;;;;;;;;;;;;;;1016964;29;1027;-57
2021/11/10 00:12:19;;;;;;;;;;;;;;;;;;1020864;29;1230;-58
2021/11/10 00:12:49;;;;;;;;;;;;;;;;;;1020200;29;1044;-58
2021/11/10 00:13:26;;;;;;;;;;;;;;;;;;1020712;29;914;-57
2021/11/10 00:13:56;;;;;;;;;;;;;;;;;;1021363;28;1104;-58
2021/11/10 00:14:29;;;;;;;;;;;;;;;;;;1021168;29;1245;-57
2021/11/10 00:15:03;;;;;;;;;;;;;;;;;;1021631;29;824;-58
2021/11/10 00:15:33;;;;;;;;;;;;;;;;;;1021077;29;929;-57
2021/11/10 00:16:04;;;;;;;;;;;;;;;;;;1021535;29;925;-57
2021/11/10 00:16:34;;;;;;;;;;;;;;;;;;1021292;29;999;-57
2021/11/10 00:17:04;;;;;;;;;;;;;;;;;;1021268;29;977;-57
2021/11/10 00:17:38;;;;;;;;;;;;;;;;;;1021392;29;892;-57
2021/11/10 00:18:09;;;;;;;;;;;;;;;;;;1021382;29;867;-57
2021/11/10 00:18:39;;;;;;;;;;;;;;;;;;1021308;29;955;-57
2021/11/10 00:19:10;;;;;;;;;;;;;;;;;;1024872;28;1401;-57
2021/11/10 00:19:43;;;;;;;;;;;;;;;;;;1024968;28;811;-58
2021/11/10 00:20:13;;;;;;;;;;;;;;;;;;1025183;28;959;-57
2021/11/10 00:20:44;;;;;;;;;;;;;;;;;;1024798;28;1976;-57
2021/11/10 00:21:15;;;;;;;;;;;;;;;;;;1022094;29;1080;-57
2021/11/10 00:21:48;;;;;;;;;;;;;;;;;;1022066;29;1301;-57
2021/11/10 00:22:22;;;;;;;;;;;;;;;;;;1025869;28;1006;-57
2021/11/10 00:22:54;;;;;;;;;;;;;;;;;;1025765;28;959;-58
2021/11/10 00:23:27;;;;;;;;;;;;;;;;;;1025725;28;1013;-58
2021/11/10 00:23:57;;;;;;;;;;;;;;;;;;1024853;28;974;-57
2021/11/10 00:24:28;;;;;;;;;;;;;;;;;;1021896;29;1275;-57
2021/11/10 00:24:58;;;;;;;;;;;;;;;;;;1022231;29;1697;-57
2021/11/10 00:25:32;;;;;;;;;;;;;;;;;;1021459;28;997;-60
2021/11/10 00:26:02;;;;;;;;;;;;;;;;;;1017021;29;1418;-57
2021/11/10 00:26:33;;;;;;;;;;;;;;;;;;1017228;29;1117;-57
2021/11/10 00:27:03;;;;;;;;;;;;;;;;;;1013109;29;1045;-57
2021/11/10 00:27:40;;;;;;;;;;;;;;;;;;1008757;29;1503;-58
2021/11/10 00:28:10;;;;;;;;;;;;;;;;;;1017761;29;1093;-59
2021/11/10 00:28:41;;;;;;;;;;;;;;;;;;1018030;29;1392;-58
2021/11/10 00:29:11;;;;;;;;;;;;;;;;;;1021924;29;1069;-58
2021/11/10 00:29:42;;;;;;;;;;;;;;;;;;1022131;29;863;-57
2021/11/10 00:30:15;;;;;;;;;;;;;;;;;;1021225;29;1443;-57
2021/11/10 00:30:45;;;;;;;;;;;;;;;;;;1021945;29;1161;-57
2021/11/10 00:31:16;;;;;;;;;;;;;;;;;;1022010;29;1080;-57
2021/11/10 00:31:49;;;;;;;;;;;;;;;;;;1022091;29;858;-60
2021/11/10 00:32:20;;;;;;;;;;;;;;;;;;1022232;29;845;-57
2021/11/10 00:32:53;;;;;;;;;;;;;;;;;;1021398;29;1278;-57
2021/11/10 00:33:24;;;;;;;;;;;;;;;;;;1022046;29;994;-58
2021/11/10 00:33:55;;;;;;;;;;;;;;;;;;1025529;28;1268;-58
2021/11/10 00:34:26;;;;;;;;;;;;;;;;;;1017370;29;1025;-58
2021/11/10 00:34:56;;;;;;;;;;;;;;;;;;1005121;29;1323;-58
2021/11/10 00:35:27;;;;;;;;;;;;;;;;;;1005348;29;1389;-56
2021/11/10 00:36:00;;;;;;;;;;;;;;;;;;1002867;29;1126;-59
2021/11/10 00:36:30;;;;;;;;;;;;;;;;;;1014303;28;1301;-54
2021/11/10 00:37:01;;;;;;;;;;;;;;;;;;1021102;29;1178;-58
2021/11/10 00:37:32;;;;;;;;;;;;;;;;;;1017322;29;1159;-58
2021/11/10 00:38:05;;;;;;;;;;;;;;;;;;1016686;29;1435;-54
2021/11/10 00:38:36;;;;;;;;;;;;;;;;;;1009819;29;1417;-60
2021/11/10 00:39:07;;;;;;;;;;;;;;;;;;1014541;29;1069;-58
2021/11/10 00:39:40;;;;;;;;;;;;;;;;;;1017818;29;1024;-57
2021/11/10 00:40:12;;;;;;;;;;;;;;;;;;1017871;29;1286;-58
2021/11/10 00:40:43;;;;;;;;;;;;;;;;;;1017306;29;1911;-59
2021/11/10 00:41:13;;;;;;;;;;;;;;;;;;1013445;29;1064;-57
2021/11/10 00:41:44;;;;;;;;;;;;;;;;;;1013439;29;960;-58
2021/11/10 00:42:16;;;;;;;;;;;;;;;;;;1017605;29;1448;-58
2021/11/10 00:42:47;;;;;;;;;;;;;;;;;;1013774;29;842;-57
2021/11/10 00:43:17;;;;;;;;;;;;;;;;;;1012890;29;1486;-59
2021/11/10 00:43:51;;;;;;;;;;;;;;;;;;1013280;29;1120;-57
2021/11/10 00:44:23;;;;;;;;;;;;;;;;;;1009698;29;942;-58
2021/11/10 00:44:58;;;;;;;;;;;;;;;;;;1010159;29;1126;-57
2021/11/10 00:45:29;;;;;;;;;;;;;;;;;;1013497;29;1121;-57
2021/11/10 00:46:00;;;;;;;;;;;;;;;;;;1019375;28;894;-60
2021/11/10 00:46:31;;;;;;;;;;;;;;;;;;1025726;28;906;-57
2021/11/10 00:47:03;;;;;;;;;;;;;;;;;;1025452;28;1105;-57
2021/11/10 00:47:37;;;;;;;;;;;;;;;;;;1020715;29;888;-58
2021/11/10 00:48:14;;;;;;;;;;;;;;;;;;1017955;29;832;-58
2021/11/10 00:48:45;;;;;;;;;;;;;;;;;;1020971;29;1200;-57
2021/11/10 00:49:16;;;;;;;;;;;;;;;;;;1010617;29;987;-57
2021/11/10 00:49:46;;;;;;;;;;;;;;;;;;1013334;29;910;-57
2021/11/10 00:50:17;;;;;;;;;;;;;;;;;;1013207;29;1038;-58
2021/11/10 00:50:50;;;;;;;;;;;;;;;;;;1009575;29;1003;-57
2021/11/10 00:51:20;;;;;;;;;;;;;;;;;;1014126;29;1283;-58
2021/11/10 00:51:50;;;;;;;;;;;;;;;;;;1021142;29;1155;-58
2021/11/10 00:52:21;;;;;;;;;;;;;;;;;;1021362;29;988;-55
2021/11/10 00:52:54;;;;;;;;;;;;;;;;;;1025180;28;1497;-57
2021/11/10 00:53:25;;;;;;;;;;;;;;;;;;1021386;29;1273;-58
2021/11/10 00:53:56;;;;;;;;;;;;;;;;;;1016963;29;1415;-58
2021/11/10 00:54:28;;;;;;;;;;;;;;;;;;1014587;29;1310;-58
2021/11/10 00:54:58;;;;;;;;;;;;;;;;;;1013694;29;780;-58
2021/11/10 00:55:30;;;;;;;;;;;;;;;;;;1015032;29;1404;-59
2021/11/10 00:56:01;;;;;;;;;;;;;;;;;;1017704;29;1220;-58
2021/11/10 00:56:31;;;;;;;;;;;;;;;;;;1025282;28;1257;-58
2021/11/10 00:57:02;;;;;;;;;;;;;;;;;;1021580;29;1186;-58
2021/11/10 00:57:33;;;;;;;;;;;;;;;;;;1021912;28;792;-58
2021/11/10 00:58:03;;;;;;;;;;;;;;;;;;1025034;28;1351;-54
2021/11/10 00:58:34;;;;;;;;;;;;;;;;;;1021587;29;1305;-58
2021/11/10 00:59:04;;;;;;;;;;;;;;;;;;1021607;29;1064;-57
2021/11/10 00:59:35;;;;;;;;;;;;;;;;;;1017642;29;1330;-58
2021/11/10 01:00:06;;;;;;;;;;;;;;;;;;1021700;29;1392;-58
2021/11/10 01:00:38;;;;;;;;;;;;;;;;;;1017583;29;1903;-58
2021/11/10 01:01:12;;;;;;;;;;;;;;;;;;1017889;29;1265;-59
2021/11/10 01:01:42;;;;;;;;;;;;;;;;;;1016847;29;893;-58
2021/11/10 01:02:12;;;;;;;;;;;;;;;;;;1014421;29;816;-59
2021/11/10 01:02:46;;;;;;;;;;;;;;;;;;1017748;29;1003;-58
2021/11/10 01:03:16;;;;;;;;;;;;;;;;;;1022003;28;855;-58
2021/11/10 01:03:47;;;;;;;;;;;;;;;;;;1025527;28;923;-58
2021/11/10 01:04:17;;;;;;;;;;;;;;;;;;1021727;29;1134;-58
2021/11/10 01:04:49;;;;;;;;;;;;;;;;;;1021112;29;1166;-58
2021/11/10 01:05:20;;;;;;;;;;;;;;;;;;1017464;29;1157;-58
2021/11/10 01:05:51;;;;;;;;;;;;;;;;;;1017748;29;1343;-58
2021/11/10 01:06:21;;;;;;;;;;;;;;;;;;1025279;28;1347;-58
2021/11/10 01:06:51;;;;;;;;;;;;;;;;;;1025379;28;1325;-58
2021/11/10 01:07:22;;;;;;;;;;;;;;;;;;1021804;29;1230;-58
2021/11/10 01:07:52;;;;;;;;;;;;;;;;;;1013380;29;978;-58
2021/11/10 01:08:24;;;;;;;;;;;;;;;;;;1015358;29;994;-58
2021/11/10 01:08:55;;;;;;;;;;;;;;;;;;1016921;29;1148;-58
2021/11/10 01:09:29;;;;;;;;;;;;;;;;;;1021288;29;1104;-58
2021/11/10 01:10:02;;;;;;;;;;;;;;;;;;1017788;28;1200;-58
2021/11/10 01:10:33;;;;;;;;;;;;;;;;;;1025336;28;1305;-58
2021/11/10 01:11:03;;;;;;;;;;;;;;;;;;1025332;28;2318;-58
2021/11/10 01:11:37;;;;;;;;;;;;;;;;;;1025374;28;1390;-58
2021/11/10 01:12:08;;;;;;;;;;;;;;;;;;1024878;28;1098;-58
2021/11/10 01:12:39;;;;;;;;;;;;;;;;;;1020819;28;1384;-59
2021/11/10 01:13:10;;;;;;;;;;;;;;;;;;1021317;29;1157;-58
2021/11/10 01:13:44;;;;;;;;;;;;;;;;;;1021623;29;1415;-58
2021/11/10 01:14:15;;;;;;;;;;;;;;;;;;1021434;28;1500;-58
2021/11/10 01:14:47;;;;;;;;;;;;;;;;;;1024640;28;1139;-58
2021/11/10 01:15:19;;;;;;;;;;;;;;;;;;1025073;28;1329;-57
2021/11/10 01:15:52;;;;;;;;;;;;;;;;;;1025054;28;1296;-58
2021/11/10 01:16:27;;;;;;;;;;;;;;;;;;1024541;28;1177;-58
2021/11/10 01:16:58;;;;;;;;;;;;;;;;;;1019517;29;1416;-57
2021/11/10 01:17:29;;;;;;;;;;;;;;;;;;1017184;29;1709;-57
2021/11/10 01:17:59;;;;;;;;;;;;;;;;;;1020526;29;1554;-57
2021/11/10 01:18:30;;;;;;;;;;;;;;;;;;1013426;29;991;-57
2021/11/10 01:19:06;;;;;;;;;;;;;;;;;;1013363;29;1171;-58
2021/11/10 01:19:37;;;;;;;;;;;;;;;;;;1013323;29;1297;-57
2021/11/10 01:20:17;;;;;;;;;;;;;;;;;;1017298;29;1004;-57
2021/11/10 01:20:48;;;;;;;;;;;;;;;;;;1018874;29;1923;-58
2021/11/10 01:21:19;;;;;;;;;;;;;;;;;;1025234;28;1369;-58
2021/11/10 01:21:50;;;;;;;;;;;;;;;;;;1019318;29;1178;-59
2021/11/10 01:22:20;;;;;;;;;;;;;;;;;;1013273;29;959;-58
2021/11/10 01:22:50;;;;;;;;;;;;;;;;;;1013191;29;1333;-53
2021/11/10 01:23:21;;;;;;;;;;;;;;;;;;1017828;29;828;-59
2021/11/10 01:23:52;;;;;;;;;;;;;;;;;;1021434;29;1064;-58
2021/11/10 01:24:23;;;;;;;;;;;;;;;;;;1017772;29;1329;-58
2021/11/10 01:24:53;;;;;;;;;;;;;;;;;;1017448;29;1037;-58
2021/11/10 01:25:24;;;;;;;;;;;;;;;;;;1017735;29;875;-57
2021/11/10 01:25:54;;;;;;;;;;;;;;;;;;1017570;29;1373;-58
2021/11/10 01:26:25;;;;;;;;;;;;;;;;;;1025328;28;1283;-58
2021/11/10 01:26:55;;;;;;;;;;;;;;;;;;1025074;28;1218;-58
2021/11/10 01:27:25;;;;;;;;;;;;;;;;;;1025451;28;1218;-57
2021/11/10 01:27:56;;;;;;;;;;;;;;;;;;1021004;29;1029;-59
2021/11/10 01:28:31;;;;;;;;;;;;;;;;;;1017308;29;1261;-57
2021/11/10 01:29:01;;;;;;;;;;;;;;;;;;1020290;29;1513;-58
2021/11/10 01:29:32;;;;;;;;;;;;;;;;;;1013085;29;1345;-58
2021/11/10 01:30:06;;;;;;;;;;;;;;;;;;1005421;29;980;-58
2021/11/10 01:30:37;;;;;;;;;;;;;;;;;;1005137;29;1251;-56
2021/11/10 01:31:07;;;;;;;;;;;;;;;;;;1002919;29;967;-57
2021/11/10 01:31:39;;;;;;;;;;;;;;;;;;1010260;29;936;-57
2021/11/10 01:32:11;;;;;;;;;;;;;;;;;;1016525;29;1493;-57
2021/11/10 01:32:43;;;;;;;;;;;;;;;;;;1016976;29;1230;-57
2021/11/10 01:33:14;;;;;;;;;;;;;;;;;;1016932;29;1163;-54
2021/11/10 01:33:52;;;;;;;;;;;;;;;;;;1008876;29;1199;-56
2021/11/10 01:34:22;;;;;;;;;;;;;;;;;;1009435;29;1347;-57
2021/11/10 01:34:53;;;;;;;;;;;;;;;;;;1009467;29;1512;-57
2021/11/10 01:35:25;;;;;;;;;;;;;;;;;;1012620;29;1627;-57
2021/11/10 01:35:56;;;;;;;;;;;;;;;;;;1012883;29;1306;-56
2021/11/10 01:36:27;;;;;;;;;;;;;;;;;;1009886;29;1024;-57
2021/11/10 01:36:59;;;;;;;;;;;;;;;;;;1004777;29;1482;-56
2021/11/10 01:37:29;;;;;;;;;;;;;;;;;;1005663;29;1019;-57
2021/11/10 01:38:01;;;;;;;;;;;;;;;;;;1005272;29;1313;-55
2021/11/10 01:38:35;;;;;;;;;;;;;;;;;;1007452;29;1167;-57
2021/11/10 01:39:07;;;;;;;;;;;;;;;;;;1024533;28;963;-57
2021/11/10 01:39:38;;;;;;;;;;;;;;;;;;1024871;28;1555;-57
2021/11/10 01:40:13;;;;;;;;;;;;;;;;;;1025433;28;1199;-57
2021/11/10 01:40:47;;;;;;;;;;;;;;;;;;1023077;28;1918;-56
2021/11/10 01:41:18;;;;;;;;;;;;;;;;;;1019935;29;1140;-57
2021/11/10 01:41:50;;;;;;;;;;;;;;;;;;1017723;29;1150;-57
2021/11/10 01:42:25;;;;;;;;;;;;;;;;;;1016944;29;1094;-57
2021/11/10 01:43:05;;;;;;;;;;;;;;;;;;1017340;29;1166;-57
2021/11/10 01:43:38;;;;;;;;;;;;;;;;;;1018711;29;1370;-57
2021/11/10 01:44:15;;;;;;;;;;;;;;;;;;1021224;29;1400;-57
2021/11/10 01:44:47;;;;;;;;;;;;;;;;;;1021591;29;1250;-57
2021/11/10 01:45:19;;;;;;;;;;;;;;;;;;1025407;28;1193;-57
2021/11/10 01:45:54;;;;;;;;;;;;;;;;;;1021147;29;1613;-57
2021/11/10 01:46:25;;;;;;;;;;;;;;;;;;1020044;29;1363;-55
2021/11/10 01:46:58;;;;;;;;;;;;;;;;;;1019965;29;1198;-54
2021/11/10 01:47:30;;;;;;;;;;;;;;;;;;1017457;29;1557;-54
2021/11/10 01:48:15;;;;;;;;;;;;;;;;;;;;;
2021/11/10 01:48:46;;;;;;;;;;;;;;;;;;1026932;28;1338;-55
2021/11/10 01:49:17;;;;;;;;;;;;;;;;;;1020423;28;1505;-56
2021/11/10 01:49:49;;;;;;;;;;;;;;;;;;1021173;29;1584;-56
2021/11/10 01:50:21;;;;;;;;;;;;;;;;;;1016299;29;1346;-55
2021/11/10 01:50:51;;;;;;;;;;;;;;;;;;1017312;29;1317;-54
2021/11/10 01:51:24;;;;;;;;;;;;;;;;;;1021120;29;1205;-55
2021/11/10 01:51:59;;;;;;;;;;;;;;;;;;1017856;28;1432;-55
2021/11/10 01:52:31;;;;;;;;;;;;;;;;;;1023772;28;1011;-57
2021/11/10 01:53:02;;;;;;;;;;;;;;;;;;1021081;29;1317;-56
2021/11/10 01:53:33;;;;;;;;;;;;;;;;;;1024870;28;1141;-55
2021/11/10 01:54:03;;;;;;;;;;;;;;;;;;1025110;28;871;-55
2021/11/10 01:54:34;;;;;;;;;;;;;;;;;;1016728;29;1364;-55
2021/11/10 01:55:07;;;;;;;;;;;;;;;;;;1016543;29;1258;-57
2021/11/10 01:55:38;;;;;;;;;;;;;;;;;;1013807;29;892;-58
2021/11/10 01:56:09;;;;;;;;;;;;;;;;;;1009687;29;1343;-57
2021/11/10 01:56:40;;;;;;;;;;;;;;;;;;1013117;29;1461;-56
2021/11/10 01:57:13;;;;;;;;;;;;;;;;;;1013061;29;1504;-58
2021/11/10 01:57:46;;;;;;;;;;;;;;;;;;1010474;29;1321;-57
2021/11/10 01:58:19;;;;;;;;;;;;;;;;;;1018535;29;1170;-57
2021/11/10 01:58:50;;;;;;;;;;;;;;;;;;1020421;29;1363;-57
2021/11/10 01:59:34;;;;;;;;;;;;;;;;;;1018127;29;1316;-58
2021/11/10 02:00:10;;;;;;;;;;;;;;;;;;1013256;29;1572;-55
2021/11/10 02:00:58;;;;;;;;;;;;;;;;;;1009098;29;1973;-56
2021/11/10 02:01:28;;;;;;;;;;;;;;;;;;1013098;29;1265;-57
2021/11/10 02:01:59;;;;;;;;;;;;;;;;;;1019566;29;1167;-57
2021/11/10 02:02:33;;;;;;;;;;;;;;;;;;1021352;28;1190;-56
2021/11/10 02:03:16;;;;;;;;;;;;;;;;;;1023771;28;1209;-57
2021/11/10 02:03:58;;;;;;;;;;;;;;;;;;1018385;29;901;-59
2021/11/10 02:04:30;;;;;;;;;;;;;;;;;;1021384;29;1202;-58
2021/11/10 02:05:04;;;;;;;;;;;;;;;;;;1021482;29;795;-57
2021/11/10 02:05:38;;;;;;;;;;;;;;;;;;1021535;29;1297;-58
2021/11/10 02:06:12;;;;;;;;;;;;;;;;;;1019944;29;1456;-57
2021/11/10 02:07:01;;;;;;;;;;;;;;;;;;1017372;29;690;-58
2021/11/10 02:07:34;;;;;;;;;;;;;;;;;;1013919;29;1381;-57
2021/11/10 02:08:05;;;;;;;;;;;;;;;;;;1019646;29;1335;-55
2021/11/10 02:08:36;;;;;;;;;;;;;;;;;;1016594;29;1089;-57
2021/11/10 02:09:16;;;;;;;;;;;;;;;;;;1017090;29;1076;-57
2021/11/10 02:09:48;;;;;;;;;;;;;;;;;;1013508;29;1160;-57
2021/11/10 02:10:20;;;;;;;;;;;;;;;;;;1013540;29;1018;-57
2021/11/10 02:10:51;;;;;;;;;;;;;;;;;;1017470;29;898;-56
2021/11/10 02:11:21;;;;;;;;;;;;;;;;;;1013807;29;1226;-57
2021/11/10 02:12:01;;;;;;;;;;;;;;;;;;1013468;29;1182;-57
2021/11/10 02:12:36;;;;;;;;;;;;;;;;;;1017368;29;962;-57
2021/11/10 02:13:08;;;;;;;;;;;;;;;;;;1005429;29;1149;-57
2021/11/10 02:13:39;;;;;;;;;;;;;;;;;;1012248;29;1302;-57
2021/11/10 02:14:09;;;;;;;;;;;;;;;;;;1016848;29;1273;-57
2021/11/10 02:14:43;;;;;;;;;;;;;;;;;;1017169;29;1253;-57
2021/11/10 02:15:22;;;;;;;;;;;;;;;;;;1020390;29;1026;-57
2021/11/10 02:15:56;;;;;;;;;;;;;;;;;;1018664;29;1570;-57
2021/11/10 02:16:30;;;;;;;;;;;;;;;;;;1018915;28;2273;-57
2021/11/10 02:17:03;;;;;;;;;;;;;;;;;;1018721;29;1690;-56
2021/11/10 02:17:37;;;;;;;;;;;;;;;;;;1022140;28;2092;-52
2021/11/10 02:18:07;;;;;;;;;;;;;;;;;;1021427;29;891;-55
2021/11/10 02:18:41;;;;;;;;;;;;;;;;;;1016934;29;1393;-56
2021/11/10 02:19:17;;;;;;;;;;;;;;;;;;1016030;29;1316;-54
2021/11/10 02:19:56;;;;;;;;;;;;;;;;;;1019296;29;1372;-55
2021/11/10 02:20:35;;;;;;;;;;;;;;;;;;1019856;29;1441;-55
2021/11/10 02:21:10;;;;;;;;;;;;;;;;;;1021506;29;1040;-55
2021/11/10 02:21:43;;;;;;;;;;;;;;;;;;1014692;29;1274;-56
2021/11/10 02:22:16;;;;;;;;;;;;;;;;;;1018105;29;1467;-57
2021/11/10 02:22:49;;;;;;;;;;;;;;;;;;1020932;29;1083;-56
2021/11/10 02:23:20;;;;;;;;;;;;;;;;;;1021791;28;1364;-51
2021/11/10 02:23:50;;;;;;;;;;;;;;;;;;1019169;29;1459;-57
2021/11/10 02:24:22;;;;;;;;;;;;;;;;;;1013530;29;1250;-57
2021/11/10 02:24:53;;;;;;;;;;;;;;;;;;1013450;29;1027;-57
2021/11/10 02:25:23;;;;;;;;;;;;;;;;;;1012966;29;1182;-57
2021/11/10 02:26:00;;;;;;;;;;;;;;;;;;1013012;29;1201;-57
2021/11/10 02:26:36;;;;;;;;;;;;;;;;;;1010762;29;1108;-56
2021/11/10 02:27:15;;;;;;;;;;;;;;;;;;1018713;29;919;-57
2021/11/10 02:27:48;;;;;;;;;;;;;;;;;;1020809;29;1023;-57
2021/11/10 02:28:26;;;;;;;;;;;;;;;;;;1020881;29;1040;-53
2021/11/10 02:28:56;;;;;;;;;;;;;;;;;;1018638;29;1260;-57
2021/11/10 02:29:32;;;;;;;;;;;;;;;;;;1016988;29;988;-57
2021/11/10 02:30:06;;;;;;;;;;;;;;;;;;1016777;29;1570;-57
2021/11/10 02:30:37;;;;;;;;;;;;;;;;;;1019754;29;1361;-57
2021/11/10 02:31:10;;;;;;;;;;;;;;;;;;1021352;28;1298;-57
2021/11/10 02:31:41;;;;;;;;;;;;;;;;;;1021020;29;1189;-57
2021/11/10 02:32:12;;;;;;;;;;;;;;;;;;1025162;28;1200;-58
2021/11/10 02:32:50;;;;;;;;;;;;;;;;;;1020347;29;1492;-57
2021/11/10 02:33:44;;;;;;;;;;;;;;;;;;1017422;29;1150;-57
2021/11/10 02:34:14;;;;;;;;;;;;;;;;;;1000774;29;1339;-57
2021/11/10 02:34:46;;;;;;;;;;;;;;;;;;1012419;29;1183;-58
2021/11/10 02:35:18;;;;;;;;;;;;;;;;;;1016712;29;1301;-57
2021/11/10 02:35:49;;;;;;;;;;;;;;;;;;1013622;29;1635;-56
2021/11/10 02:36:29;;;;;;;;;;;;;;;;;;1020556;29;1027;-57
2021/11/10 02:37:00;;;;;;;;;;;;;;;;;;1013212;29;1008;-57
2021/11/10 02:37:30;;;;;;;;;;;;;;;;;;1013047;29;1060;-57
2021/11/10 02:38:04;;;;;;;;;;;;;;;;;;1013043;29;1330;-56
2021/11/10 02:38:41;;;;;;;;;;;;;;;;;;1015090;29;1409;-55
2021/11/10 02:39:12;;;;;;;;;;;;;;;;;;1013095;29;1120;-57
2021/11/10 02:39:44;;;;;;;;;;;;;;;;;;1012825;29;1057;-57
2021/11/10 02:40:15;;;;;;;;;;;;;;;;;;1004298;29;1396;-58
2021/11/10 02:40:46;;;;;;;;;;;;;;;;;;1008352;29;1926;-57
2021/11/10 02:41:16;;;;;;;;;;;;;;;;;;1005062;29;1178;-57
2021/11/10 02:41:47;;;;;;;;;;;;;;;;;;1009333;29;965;-55
2021/11/10 02:42:20;;;;;;;;;;;;;;;;;;1017292;29;1236;-58
2021/11/10 02:42:52;;;;;;;;;;;;;;;;;;1021757;28;1005;-57
2021/11/10 02:43:23;;;;;;;;;;;;;;;;;;1024131;28;1139;-55
2021/11/10 02:43:53;;;;;;;;;;;;;;;;;;1016814;29;900;-56
2021/11/10 02:44:24;;;;;;;;;;;;;;;;;;1012753;29;1195;-53
2021/11/10 02:44:55;;;;;;;;;;;;;;;;;;1008956;29;1419;-54
2021/11/10 02:45:27;;;;;;;;;;;;;;;;;;1009066;29;1199;-57
2021/11/10 02:45:57;;;;;;;;;;;;;;;;;;1005260;29;1348;-54
2021/11/10 02:46:27;;;;;;;;;;;;;;;;;;1009402;29;980;-56
2021/11/10 02:46:59;;;;;;;;;;;;;;;;;;1013125;29;1001;-55
2021/11/10 02:47:30;;;;;;;;;;;;;;;;;;1017133;29;1269;-55
2021/11/10 02:48:00;;;;;;;;;;;;;;;;;;1017286;29;1163;-55
2021/11/10 02:48:30;;;;;;;;;;;;;;;;;;1017356;29;823;-56
2021/11/10 02:49:04;;;;;;;;;;;;;;;;;;1016787;29;1473;-55
2021/11/10 02:49:35;;;;;;;;;;;;;;;;;;1021238;28;1077;-55
2021/11/10 02:50:06;;;;;;;;;;;;;;;;;;1020885;29;1289;-54
2021/11/10 02:50:37;;;;;;;;;;;;;;;;;;1024473;28;1073;-51
2021/11/10 02:51:11;;;;;;;;;;;;;;;;;;1024987;28;986;-55
2021/11/10 02:52:00;;;;;;;;;;;;;;;;;;1024711;28;1048;-56
2021/11/10 02:52:30;;;;;;;;;;;;;;;;;;1022220;28;1118;-57
2021/11/10 02:53:01;;;;;;;;;;;;;;;;;;1020829;29;1557;-55
2021/11/10 02:53:35;;;;;;;;;;;;;;;;;;1021180;29;899;-54
2021/11/10 02:54:08;;;;;;;;;;;;;;;;;;1021209;29;1088;-54
2021/11/10 02:54:41;;;;;;;;;;;;;;;;;;1020709;29;1310;-56
2021/11/10 02:55:11;;;;;;;;;;;;;;;;;;1020400;29;967;-54
2021/11/10 02:55:42;;;;;;;;;;;;;;;;;;1016421;29;1781;-55
2021/11/10 02:56:18;;;;;;;;;;;;;;;;;;1013368;29;1420;-53
2021/11/10 02:56:48;;;;;;;;;;;;;;;;;;1020922;29;1443;-56
2021/11/10 02:57:20;;;;;;;;;;;;;;;;;;1017330;29;1081;-54
2021/11/10 02:57:52;;;;;;;;;;;;;;;;;;1018045;29;1450;-52
2021/11/10 02:58:32;;;;;;;;;;;;;;;;;;1016361;29;1274;-54
2021/11/10 02:59:04;;;;;;;;;;;;;;;;;;1019084;29;1061;-56
2021/11/10 02:59:35;;;;;;;;;;;;;;;;;;1020794;29;1400;-54
2021/11/10 03:00:12;;;;;;;;;;;;;;;;;;1018299;29;1175;-54
2021/11/10 03:00:46;;;;;;;;;;;;;;;;;;1015470;29;2000;-54
2021/11/10 03:01:17;;;;;;;;;;;;;;;;;;1020809;29;1007;-53
2021/11/10 03:01:47;;;;;;;;;;;;;;;;;;1022008;28;908;-54
2021/11/10 03:02:25;;;;;;;;;;;;;;;;;;1021018;28;1222;-54
2021/11/10 03:02:56;;;;;;;;;;;;;;;;;;1018905;29;1154;-53
2021/11/10 03:03:28;;;;;;;;;;;;;;;;;;1017279;29;1281;-55
2021/11/10 03:04:01;;;;;;;;;;;;;;;;;;1022552;28;1276;-54
2021/11/10 03:04:32;;;;;;;;;;;;;;;;;;1025258;28;1185;-56
2021/11/10 03:05:04;;;;;;;;;;;;;;;;;;1023591;28;1900;-53
2021/11/10 03:05:45;;;;;;;;;;;;;;;;;;1024269;28;1024;-54
2021/11/10 03:06:15;;;;;;;;;;;;;;;;;;1024531;28;1300;-55
2021/11/10 03:06:46;;;;;;;;;;;;;;;;;;1020002;28;1121;-54
2021/11/10 03:07:17;;;;;;;;;;;;;;;;;;1017028;29;1082;-54
2021/11/10 03:07:48;;;;;;;;;;;;;;;;;;1016491;29;1273;-55
2021/11/10 03:08:20;;;;;;;;;;;;;;;;;;1014873;29;1255;-55
2021/11/10 03:08:55;;;;;;;;;;;;;;;;;;1021067;29;1365;-50
2021/11/10 03:09:27;;;;;;;;;;;;;;;;;;1025634;28;1238;-56
2021/11/10 03:09:59;;;;;;;;;;;;;;;;;;1020919;29;1247;-54
2021/11/10 03:10:32;;;;;;;;;;;;;;;;;;1020386;29;1261;-54
2021/11/10 03:11:03;;;;;;;;;;;;;;;;;;1020176;29;1382;-54
2021/11/10 03:11:34;;;;;;;;;;;;;;;;;;1018356;29;859;-53
2021/11/10 03:12:05;;;;;;;;;;;;;;;;;;1016645;29;1291;-54
2021/11/10 03:12:36;;;;;;;;;;;;;;;;;;1013487;29;1320;-54
2021/11/10 03:13:06;;;;;;;;;;;;;;;;;;1021074;28;1173;-50
2021/11/10 03:13:39;;;;;;;;;;;;;;;;;;1025321;28;1659;-53
2021/11/10 03:14:11;;;;;;;;;;;;;;;;;;1025005;28;1180;-53
2021/11/10 03:14:42;;;;;;;;;;;;;;;;;;1021041;29;1317;-56
2021/11/10 03:15:16;;;;;;;;;;;;;;;;;;1020372;29;902;-54
2021/11/10 03:15:47;;;;;;;;;;;;;;;;;;1017289;29;1334;-54
2021/11/10 03:16:18;;;;;;;;;;;;;;;;;;1021522;28;1253;-54
2021/11/10 03:16:49;;;;;;;;;;;;;;;;;;1024708;28;1145;-55
2021/11/10 03:17:20;;;;;;;;;;;;;;;;;;1025023;28;1548;-55
2021/11/10 03:17:51;;;;;;;;;;;;;;;;;;1020650;29;1436;-53
2021/11/10 03:18:23;;;;;;;;;;;;;;;;;;1016023;29;1308;-54
2021/11/10 03:18:55;;;;;;;;;;;;;;;;;;1008146;29;1178;-57
2021/11/10 03:19:27;;;;;;;;;;;;;;;;;;1009056;29;2007;-57
2021/11/10 03:19:57;;;;;;;;;;;;;;;;;;1005160;29;1069;-57
2021/11/10 03:20:28;;;;;;;;;;;;;;;;;;1007161;29;1091;-56
2021/11/10 03:20:58;;;;;;;;;;;;;;;;;;1021090;29;1910;-56
2021/11/10 03:21:29;;;;;;;;;;;;;;;;;;1016890;29;1139;-55
2021/11/10 03:22:00;;;;;;;;;;;;;;;;;;1020893;29;992;-56
2021/11/10 03:22:30;;;;;;;;;;;;;;;;;;1024500;28;1486;-55
2021/11/10 03:23:01;;;;;;;;;;;;;;;;;;1028559;28;1183;-56
2021/11/10 03:23:32;;;;;;;;;;;;;;;;;;1025226;28;1223;-56
2021/11/10 03:24:02;;;;;;;;;;;;;;;;;;1024137;28;1271;-55
2021/11/10 03:24:33;;;;;;;;;;;;;;;;;;1025210;28;1302;-53
2021/11/10 03:25:05;;;;;;;;;;;;;;;;;;1021080;28;1610;-54
2021/11/10 03:25:41;;;;;;;;;;;;;;;;;;1021120;29;1376;-56
2021/11/10 03:26:12;;;;;;;;;;;;;;;;;;1016118;29;1317;-55
2021/11/10 03:26:43;;;;;;;;;;;;;;;;;;1017726;29;1317;-54
2021/11/10 03:27:14;;;;;;;;;;;;;;;;;;1018126;29;1043;-57
2021/11/10 03:27:48;;;;;;;;;;;;;;;;;;1017379;29;1326;-56
2021/11/10 03:28:19;;;;;;;;;;;;;;;;;;1016616;29;1111;-57
2021/11/10 03:28:49;;;;;;;;;;;;;;;;;;1017499;29;1259;-55
2021/11/10 03:29:20;;;;;;;;;;;;;;;;;;1016965;29;976;-55
2021/11/10 03:29:50;;;;;;;;;;;;;;;;;;1016870;29;996;-55
2021/11/10 03:30:23;;;;;;;;;;;;;;;;;;1017330;29;1208;-55
2021/11/10 03:31:02;;;;;;;;;;;;;;;;;;1012565;29;1223;-55
2021/11/10 03:31:34;;;;;;;;;;;;;;;;;;1016966;29;1265;-54
2021/11/10 03:32:06;;;;;;;;;;;;;;;;;;1020551;29;1170;-53
2021/11/10 03:32:37;;;;;;;;;;;;;;;;;;1018697;29;1315;-56
2021/11/10 03:33:10;;;;;;;;;;;;;;;;;;1020547;29;1190;-55
2021/11/10 03:33:41;;;;;;;;;;;;;;;;;;1016427;29;1140;-56
2021/11/10 03:34:12;;;;;;;;;;;;;;;;;;1017603;29;1179;-57
2021/11/10 03:34:43;;;;;;;;;;;;;;;;;;1024751;28;1530;-54
2021/11/10 03:35:13;;;;;;;;;;;;;;;;;;1020956;29;1379;-57
2021/11/10 03:35:44;;;;;;;;;;;;;;;;;;1020991;29;1345;-55
2021/11/10 03:36:20;;;;;;;;;;;;;;;;;;1024273;28;1340;-56
2021/11/10 03:36:51;;;;;;;;;;;;;;;;;;1021908;28;1439;-56
2021/11/10 03:37:25;;;;;;;;;;;;;;;;;;1026042;28;1193;-56
2021/11/10 03:37:56;;;;;;;;;;;;;;;;;;1024449;28;1350;-56
2021/11/10 03:38:29;;;;;;;;;;;;;;;;;;1024777;28;1679;-56
2021/11/10 03:38:59;;;;;;;;;;;;;;;;;;1016215;29;1506;-53
2021/11/10 03:39:30;;;;;;;;;;;;;;;;;;1016789;29;1725;-55
2021/11/10 03:40:01;;;;;;;;;;;;;;;;;;1012653;29;1132;-55
2021/11/10 03:40:32;;;;;;;;;;;;;;;;;;1013319;29;1337;-54
2021/11/10 03:41:05;;;;;;;;;;;;;;;;;;1020997;28;1914;-54
2021/11/10 03:41:39;;;;;;;;;;;;;;;;;;1021764;28;1350;-54
2021/11/10 03:42:10;;;;;;;;;;;;;;;;;;1023926;28;1264;-55
2021/11/10 03:42:45;;;;;;;;;;;;;;;;;;1024843;28;1429;-55
2021/11/10 03:43:17;;;;;;;;;;;;;;;;;;1020500;28;1211;-55
2021/11/10 03:43:51;;;;;;;;;;;;;;;;;;1023975;28;950;-56
2021/11/10 03:44:22;;;;;;;;;;;;;;;;;;1019124;29;1303;-53
2021/11/10 03:44:52;;;;;;;;;;;;;;;;;;1022423;28;1353;-56
2021/11/10 03:45:23;;;;;;;;;;;;;;;;;;1024463;28;920;-55